Time;durP1;ratioP1;P1;durP2;ratioP2;P2;SDS_P1;SDS_P2;PMS_P1;PMS_P2;Temp;Humidity;BMP_temperature;BMP_pressure;BME280_temperature;BME280_humidity;BME280_pressure;Samples;Min_cycle;Max_cycle;Signal;HPM_P1;HPM_P2
2022/04/02 00:02:24;;;;;;;4.95;1.63;;;;;;;;;;6281873;22;20022;-89
2022/04/02 00:04:52;;;;;;;10.50;2.28;;;;;;;;;;6270731;22;20028;-89
2022/04/02 00:07:20;;;;;;;2.78;1.42;;;;;;;;;;6281485;22;20012;-87
2022/04/02 00:09:48;;;;;;;6.63;1.63;;;;;;;;;;6281881;22;20090;-86
2022/04/02 00:12:16;;;;;;;8.75;1.90;;;;;;;;;;6277995;22;20027;-86
2022/04/02 00:14:47;;;;;;;4.80;1.80;;;;;;;;;;6280002;22;20091;-86
2022/04/02 00:17:14;;;;;;;6.93;2.10;;;;;;;;;;6269234;22;20020;-86
2022/04/02 00:19:42;;;;;;;5.78;2.15;;;;;;;;;;6278609;22;20026;-87
2022/04/02 00:22:10;;;;;;;4.05;1.73;;;;;;;;;;6280841;22;20110;-87
2022/04/02 00:34:33;;;;;;;6.55;2.42;;;;;;;;;;6210700;23;20112;-94
2022/04/02 00:43:26;;;;;;;6.15;1.90;;;;;;;;;;6162149;23;20020;-93
2022/04/02 00:51:51;;;;;;;3.97;1.60;;;;;;;;;;5900630;24;20116;-86
2022/04/02 00:54:20;;;;;;;4.65;1.63;;;;;;;;;;5900334;24;20029;-86
2022/04/02 00:56:47;;;;;;;4.50;2.00;;;;;;;;;;5890019;24;20358;-86
2022/04/02 00:59:15;;;;;;;4.90;1.58;;;;;;;;;;5867944;24;20029;-87
2022/04/02 01:01:45;;;;;;;5.72;1.77;;;;;;;;;;5900436;24;20027;-86
2022/04/02 01:04:13;;;;;;;3.28;1.70;;;;;;;;;;5899986;24;20060;-86
2022/04/02 01:06:45;;;;;;;2.50;1.52;;;;;;;;;;5876205;24;20107;-86
2022/04/02 01:09:15;;;;;;;4.53;1.60;;;;;;;;;;5895048;24;20074;-86
2022/04/02 01:11:48;;;;;;;4.07;1.85;;;;;;;;;;5938890;24;20417;-86
2022/04/02 01:14:15;;;;;;;4.63;1.88;;;;;;;;;;5986196;24;20080;-92
2022/04/02 01:17:05;;;;;;;3.75;1.92;;;;;;;;;;5981972;23;20014;-92
2022/04/02 01:19:48;;;;;;;4.53;1.80;;;;;;;;;;6047562;23;20023;-93
2022/04/02 01:22:34;;;;;;;4.72;1.75;;;;;;;;;;6051755;23;20092;-93
2022/04/02 01:25:15;;;;;;;5.25;1.60;;;;;;;;;;6163116;23;20048;-92
2022/04/02 01:28:02;;;;;;;4.18;1.60;;;;;;;;;;6139115;23;20029;-92
2022/04/02 01:30:45;;;;;;;5.35;1.98;;;;;;;;;;6158782;23;20047;-92
2022/04/02 01:33:27;;;;;;;5.75;1.98;;;;;;;;;;6139049;23;20024;-92
2022/04/02 01:36:02;;;;;;;3.53;1.70;;;;;;;;;;6189504;22;20490;-94
2022/04/02 01:38:37;;;;;;;3.85;1.60;;;;;;;;;;6282479;22;20023;-94
2022/04/02 01:41:33;;;;;;;4.22;1.80;;;;;;;;;;6253708;22;20027;-92
2022/04/02 01:44:19;;;;;;;;;;;;;;;;;;6261922;22;20025;-92
2022/04/02 01:48:43;;;;;;;4.03;1.77;;;;;;;;;;6283836;22;19925;-91
2022/04/02 02:09:57;;;;;;;3.75;1.75;;;;;;;;;;6279670;22;20315;-86
2022/04/02 02:12:58;;;;;;;4.00;1.80;;;;;;;;;;6214031;23;20098;-92
2022/04/02 02:16:19;;;;;;;8.77;1.98;;;;;;;;;;6182637;23;20008;-92
2022/04/02 02:19:29;;;;;;;3.33;2.03;;;;;;;;;;6135276;23;20026;-94
2022/04/02 02:22:11;;;;;;;4.40;1.85;;;;;;;;;;6156708;23;20457;-92
2022/04/02 02:24:54;;;;;;;5.10;2.42;;;;;;;;;;6100944;23;20107;-93
2022/04/02 02:27:35;;;;;;;6.25;1.92;;;;;;;;;;6133771;23;20041;-92
2022/04/02 02:31:22;;;;;;;6.40;2.03;;;;;;;;;;6062610;23;20027;-92
2022/04/02 02:56:49;;;;;;;8.10;2.40;;;;;;;;;;6047710;23;20027;-94
2022/04/02 02:59:17;;;;;;;4.50;1.95;;;;;;;;;;5981986;23;20031;-86
2022/04/02 03:01:45;;;;;;;5.70;1.92;;;;;;;;;;6015447;23;20031;-86
2022/04/02 04:02:17;;;;;;;4.63;2.03;;;;;;;;;;6286748;22;20401;-94
2022/04/02 04:53:20;;;;;;;3.67;1.80;;;;;;;;;;6136483;23;20029;-94
2022/04/02 05:11:11;;;;;;;3.72;1.75;;;;;;;;;;5983570;23;20026;-86
2022/04/02 05:13:55;;;;;;;6.55;1.77;;;;;;;;;;5951558;23;20075;-86
2022/04/02 05:16:26;;;;;;;5.68;2.00;;;;;;;;;;6009553;23;20027;-87
2022/04/02 05:18:55;;;;;;;6.40;2.40;;;;;;;;;;6042485;23;20358;-86
2022/04/02 05:21:23;;;;;;;5.95;2.00;;;;;;;;;;6097918;23;20033;-86
2022/04/02 05:23:51;;;;;;;4.55;1.95;;;;;;;;;;6073103;23;20113;-86
2022/04/02 05:26:19;;;;;;;6.47;2.75;;;;;;;;;;6097572;23;20026;-87
2022/04/02 05:28:57;;;;;;;35.03;9.52;;;;;;;;;;6073186;23;20208;-86
2022/04/02 05:31:25;;;;;;;14.90;4.95;;;;;;;;;;6088893;23;20107;-86
2022/04/02 05:33:54;;;;;;;7.55;4.00;;;;;;;;;;6166528;23;20096;-85
2022/04/02 05:36:21;;;;;;;6.07;2.85;;;;;;;;;;6216444;23;20055;-86
2022/04/02 05:38:49;;;;;;;4.97;2.80;;;;;;;;;;6189928;23;20029;-85
2022/04/02 05:41:18;;;;;;;5.47;2.85;;;;;;;;;;6211748;22;20023;-85
2022/04/02 05:43:45;;;;;;;5.63;2.60;;;;;;;;;;6277341;22;20069;-85
2022/04/02 05:46:13;;;;;;;6.55;2.90;;;;;;;;;;6277799;22;20772;-86
2022/04/02 05:48:41;;;;;;;6.32;2.08;;;;;;;;;;6280218;22;20020;-86
2022/04/02 05:51:09;;;;;;;4.85;2.08;;;;;;;;;;6280063;22;20043;-86
2022/04/02 05:53:37;;;;;;;4.47;2.63;;;;;;;;;;6280910;22;20046;-85
2022/04/02 05:56:05;;;;;;;10.15;4.40;;;;;;;;;;6281061;22;20093;-84
2022/04/02 05:58:33;;;;;;;5.15;3.03;;;;;;;;;;6277697;22;20020;-86
2022/04/02 06:01:01;;;;;;;4.82;2.15;;;;;;;;;;6278195;22;20012;-85
2022/04/02 06:03:29;;;;;;;4.25;2.20;;;;;;;;;;6279007;22;20481;-85
2022/04/02 06:05:57;;;;;;;4.75;2.08;;;;;;;;;;6280267;22;20023;-85
2022/04/02 06:08:25;;;;;;;3.47;1.80;;;;;;;;;;6279793;22;20099;-85
2022/04/02 06:10:53;;;;;;;5.68;2.78;;;;;;;;;;6279350;22;20050;-86
2022/04/02 06:13:21;;;;;;;4.20;1.80;;;;;;;;;;6279203;22;20023;-85
2022/04/02 06:15:49;;;;;;;4.45;1.98;;;;;;;;;;6280082;22;20094;-86
2022/04/02 06:18:18;;;;;;;3.90;2.10;;;;;;;;;;6280681;22;20044;-85
2022/04/02 06:20:46;;;;;;;4.43;2.08;;;;;;;;;;6280275;22;20393;-85
2022/04/02 06:23:13;;;;;;;4.80;2.13;;;;;;;;;;6279576;22;20019;-84
2022/04/02 06:25:41;;;;;;;5.43;1.60;;;;;;;;;;6279931;22;20070;-86
2022/04/02 06:28:09;;;;;;;3.85;1.75;;;;;;;;;;6279366;22;20026;-87
2022/04/02 06:30:37;;;;;;;4.18;1.90;;;;;;;;;;6280630;22;20024;-84
2022/04/02 06:33:05;;;;;;;8.13;3.92;;;;;;;;;;6279149;22;20020;-85
2022/04/02 06:35:34;;;;;;;3.80;2.30;;;;;;;;;;6278219;22;20107;-85
2022/04/02 06:38:04;;;;;;;3.90;1.67;;;;;;;;;;6277992;22;20062;-84
2022/04/02 06:40:34;;;;;;;6.15;2.25;;;;;;;;;;6280358;22;20015;-86
2022/04/02 06:43:04;;;;;;;3.25;1.30;;;;;;;;;;6278711;22;20807;-86
2022/04/02 06:45:44;;;;;;;2.95;1.50;;;;;;;;;;6281055;22;20378;-86
2022/04/02 06:48:15;;;;;;;3.90;1.60;;;;;;;;;;6272738;22;20074;-85
2022/04/02 06:50:43;;;;;;;5.53;2.38;;;;;;;;;;6277153;22;20036;-83
2022/04/02 06:53:11;;;;;;;3.60;1.60;;;;;;;;;;6277393;22;20921;-82
2022/04/02 06:55:40;;;;;;;5.07;1.38;;;;;;;;;;6276890;22;20070;-82
2022/04/02 06:58:08;;;;;;;3.90;1.50;;;;;;;;;;6286116;22;20034;-83
2022/04/02 07:00:37;;;;;;;2.97;1.50;;;;;;;;;;6286176;22;20072;-84
2022/04/02 07:03:05;;;;;;;3.50;1.42;;;;;;;;;;6290629;22;20024;-83
2022/04/02 07:05:33;;;;;;;3.33;1.50;;;;;;;;;;6281760;22;20071;-83
2022/04/02 07:08:01;;;;;;;5.32;1.50;;;;;;;;;;6278479;22;20394;-84
2022/04/02 07:10:29;;;;;;;3.95;1.20;;;;;;;;;;6288858;22;20023;-84
2022/04/02 07:12:57;;;;;;;2.28;1.27;;;;;;;;;;6274359;22;20027;-84
2022/04/02 07:15:25;;;;;;;2.03;1.20;;;;;;;;;;6278247;22;20012;-84
2022/04/02 07:17:53;;;;;;;2.78;1.40;;;;;;;;;;6276658;22;20105;-84
2022/04/02 07:20:26;;;;;;;2.83;1.38;;;;;;;;;;6277310;22;20015;-84
2022/04/02 07:22:55;;;;;;;3.10;0.95;;;;;;;;;;6284825;22;20102;-84
2022/04/02 07:25:25;;;;;;;5.40;1.35;;;;;;;;;;6273290;22;20023;-85
2022/04/02 07:27:54;;;;;;;2.63;1.30;;;;;;;;;;6270574;22;20066;-84
2022/04/02 07:30:22;;;;;;;3.40;1.38;;;;;;;;;;6280220;22;20019;-85
2022/04/02 07:32:49;;;;;;;2.38;1.17;;;;;;;;;;6282480;22;20335;-85
2022/04/02 07:35:17;;;;;;;2.35;1.25;;;;;;;;;;6282069;22;20050;-85
2022/04/02 07:38:16;;;;;;;3.92;1.60;;;;;;;;;;6271214;22;20016;-84
2022/04/02 07:41:10;;;;;;;7.45;2.38;;;;;;;;;;6128190;23;20025;-85
2022/04/02 07:43:43;;;;;;;2.97;1.30;;;;;;;;;;6132507;23;20420;-85
2022/04/02 07:46:17;;;;;;;4.47;1.42;;;;;;;;;;6148411;23;20560;-85
2022/04/02 07:48:49;;;;;;;3.80;1.30;;;;;;;;;;6148436;23;20017;-85
2022/04/02 07:51:29;;;;;;;4.43;1.50;;;;;;;;;;6148578;23;20026;-85
2022/04/02 07:54:02;;;;;;;2.63;1.27;;;;;;;;;;6148749;23;20036;-85
2022/04/02 07:56:38;;;;;;;3.83;1.88;;;;;;;;;;6146636;23;20530;-84
2022/04/02 07:59:11;;;;;;;3.05;1.38;;;;;;;;;;6147336;23;20018;-84
2022/04/02 08:01:44;;;;;;;3.08;1.55;;;;;;;;;;6149191;23;20028;-84
2022/04/02 08:04:14;;;;;;;6.80;2.40;;;;;;;;;;6147303;23;20029;-84
2022/04/02 08:06:43;;;;;;;5.32;2.70;;;;;;;;;;6158705;23;20611;-84
2022/04/02 08:09:13;;;;;;;2.92;1.48;;;;;;;;;;6124225;23;20022;-85
2022/04/02 08:11:41;;;;;;;3.88;1.40;;;;;;;;;;6159338;23;20025;-83
2022/04/02 08:14:10;;;;;;;2.92;1.60;;;;;;;;;;6159001;23;20029;-85
2022/04/02 08:16:43;;;;;;;2.53;0.90;;;;;;;;;;6157582;23;20035;-85
2022/04/02 08:19:14;;;;;;;4.68;1.63;;;;;;;;;;6281835;22;20724;-85
2022/04/02 08:21:41;;;;;;;3.25;1.15;;;;;;;;;;6270283;22;20023;-84
2022/04/02 08:24:09;;;;;;;2.60;0.85;;;;;;;;;;6269699;22;20023;-85
2022/04/02 08:26:50;;;;;;;2.53;1.20;;;;;;;;;;6269139;22;20030;-84
2022/04/02 08:29:39;;;;;;;2.97;1.25;;;;;;;;;;6269968;22;20316;-86
2022/04/02 08:32:19;;;;;;;3.03;1.40;;;;;;;;;;6281149;22;20020;-85
2022/04/02 08:34:53;;;;;;;4.05;1.65;;;;;;;;;;6281661;22;20054;-85
2022/04/02 08:37:53;;;;;;;1.88;1.10;;;;;;;;;;6269964;22;20047;-85
2022/04/02 08:40:36;;;;;;;1.95;0.98;;;;;;;;;;6125927;23;20064;-85
2022/04/02 08:43:47;;;;;;;4.55;1.30;;;;;;;;;;6144436;23;20028;-84
2022/04/02 08:46:35;;;;;;;1.83;1.17;;;;;;;;;;6069144;23;20057;-83
2022/04/02 08:49:23;;;;;;;2.63;1.10;;;;;;;;;;6060423;23;20019;-83
2022/04/02 08:52:09;;;;;;;2.75;1.20;;;;;;;;;;6060508;23;20023;-85
2022/04/02 08:54:42;;;;;;;1.67;0.98;;;;;;;;;;6009097;23;20650;-84
2022/04/02 08:57:18;;;;;;;5.22;1.20;;;;;;;;;;6031243;23;20059;-84
2022/04/02 09:00:05;;;;;;;6.93;2.80;;;;;;;;;;6031162;23;20037;-83
2022/04/02 09:02:51;;;;;;;;;;;;;;;;;;6040640;23;20106;-83
2022/04/02 09:05:33;;;;;;;4.30;1.58;;;;;;;;;;6032900;23;19947;-83
2022/04/02 09:08:26;;;;;;;3.97;1.40;;;;;;;;;;6031767;23;20075;-83
2022/04/02 09:11:24;;;;;;;3.63;1.38;;;;;;;;;;6030608;23;20023;-82
2022/04/02 09:14:09;;;;;;;1.92;1.17;;;;;;;;;;6039777;23;20019;-83
2022/04/02 09:17:10;;;;;;;3.67;1.35;;;;;;;;;;6075177;23;20073;-82
2022/04/02 09:19:49;;;;;;;2.67;1.27;;;;;;;;;;6030626;23;20047;-84
2022/04/02 09:22:23;;;;;;;2.00;1.10;;;;;;;;;;6059708;23;20025;-84
2022/04/02 09:25:21;;;;;;;2.40;1.05;;;;;;;;;;6121753;23;20029;-84
2022/04/02 09:27:59;;;;;;;2.10;1.15;;;;;;;;;;6145025;23;20025;-83
2022/04/02 09:30:46;;;;;;;2.38;1.10;;;;;;;;;;6147060;23;20108;-83
2022/04/02 09:33:48;;;;;;;2.45;1.17;;;;;;;;;;6146196;23;20057;-83
2022/04/02 09:36:46;;;;;;;2.00;1.10;;;;;;;;;;6146758;23;20097;-84
2022/04/02 09:39:52;;;;;;;3.42;1.17;;;;;;;;;;6147626;23;20017;-84
2022/04/02 09:42:41;;;;;;;2.47;1.27;;;;;;;;;;6145632;23;20064;-82
2022/04/02 09:45:17;;;;;;;1.88;1.00;;;;;;;;;;6146931;23;20480;-84
2022/04/02 09:47:50;;;;;;;2.40;1.20;;;;;;;;;;6147352;23;20029;-83
2022/04/02 09:50:24;;;;;;;2.60;1.20;;;;;;;;;;6147081;23;20512;-83
2022/04/02 09:52:54;;;;;;;3.13;1.35;;;;;;;;;;6147587;23;20035;-83
2022/04/02 09:55:29;;;;;;;1.83;1.02;;;;;;;;;;6151738;23;20049;-83
2022/04/02 09:58:28;;;;;;;5.20;1.65;;;;;;;;;;6265366;22;20024;-82
2022/04/02 10:01:30;;;;;;;3.15;1.20;;;;;;;;;;6271091;22;20103;-82
2022/04/02 10:04:04;;;;;;;2.50;1.15;;;;;;;;;;6126124;23;20025;-85
2022/04/02 10:06:46;;;;;;;2.20;1.20;;;;;;;;;;6140524;23;20059;-84
2022/04/02 10:09:14;;;;;;;2.85;1.40;;;;;;;;;;6156131;23;20030;-85
2022/04/02 10:11:57;;;;;;;3.10;1.52;;;;;;;;;;6146971;23;20430;-85
2022/04/02 10:14:28;;;;;;;1.95;1.13;;;;;;;;;;6144333;23;20022;-85
2022/04/02 10:17:03;;;;;;;4.43;1.48;;;;;;;;;;6152699;23;20463;-84
2022/04/02 10:19:36;;;;;;;4.25;1.60;;;;;;;;;;6155913;23;20058;-84
2022/04/02 10:22:05;;;;;;;5.10;1.42;;;;;;;;;;6155667;23;20059;-85
2022/04/02 10:24:41;;;;;;;2.70;1.38;;;;;;;;;;6146647;23;20124;-85
2022/04/02 10:27:11;;;;;;;3.67;1.00;;;;;;;;;;6154367;23;20025;-84
2022/04/02 10:29:58;;;;;;;3.40;1.30;;;;;;;;;;6146050;23;20017;-83
2022/04/02 10:32:49;;;;;;;2.33;1.05;;;;;;;;;;6147156;23;20026;-82
2022/04/02 10:35:18;;;;;;;4.03;1.25;;;;;;;;;;6122707;23;20077;-81
2022/04/02 10:38:08;;;;;;;2.42;1.02;;;;;;;;;;6158439;23;20110;-82
2022/04/02 10:40:52;;;;;;;2.17;1.13;;;;;;;;;;6201823;22;20404;-83
2022/04/02 10:43:28;;;;;;;1.88;0.95;;;;;;;;;;6268653;22;20020;-81
2022/04/02 10:45:57;;;;;;;2.08;1.13;;;;;;;;;;6269871;22;20092;-81
2022/04/02 10:48:53;;;;;;;2.55;1.00;;;;;;;;;;6270115;22;20016;-82
2022/04/02 10:51:26;;;;;;;3.88;1.15;;;;;;;;;;6270508;22;20046;-82
2022/04/02 10:54:02;;;;;;;4.15;1.30;;;;;;;;;;6270603;22;20024;-82
2022/04/02 10:56:43;;;;;;;2.88;1.30;;;;;;;;;;6271044;22;20016;-82
2022/04/02 10:59:14;;;;;;;2.28;1.20;;;;;;;;;;6269120;22;20292;-83
2022/04/02 11:01:43;;;;;;;3.33;1.48;;;;;;;;;;6271732;22;20016;-83
2022/04/02 11:04:39;;;;;;;2.00;1.10;;;;;;;;;;6281131;22;20023;-83
2022/04/02 11:07:07;;;;;;;2.13;1.20;;;;;;;;;;6247193;22;20047;-83
2022/04/02 11:09:39;;;;;;;2.53;1.40;;;;;;;;;;6284659;22;20377;-83
2022/04/02 11:12:15;;;;;;;3.20;1.35;;;;;;;;;;6274434;22;20077;-83
2022/04/02 11:14:57;;;;;;;2.53;1.00;;;;;;;;;;6272468;22;20031;-83
2022/04/02 11:17:32;;;;;;;3.50;1.35;;;;;;;;;;6284568;22;20050;-81
2022/04/02 11:20:17;;;;;;;2.03;1.10;;;;;;;;;;6272126;22;20031;-82
2022/04/02 11:22:59;;;;;;;2.45;1.15;;;;;;;;;;6281700;22;20114;-82
2022/04/02 11:25:36;;;;;;;2.47;1.20;;;;;;;;;;6271382;22;20508;-82
2022/04/02 11:28:12;;;;;;;2.97;1.20;;;;;;;;;;6270695;22;20031;-82
2022/04/02 11:30:43;;;;;;;2.55;1.40;;;;;;;;;;6272737;22;20023;-81
2022/04/02 11:33:24;;;;;;;3.38;1.60;;;;;;;;;;6272206;22;20335;-82
2022/04/02 11:36:03;;;;;;;5.30;1.50;;;;;;;;;;6272295;22;20047;-82
2022/04/02 11:38:49;;;;;;;2.63;1.23;;;;;;;;;;6273353;22;20089;-82
2022/04/02 11:41:23;;;;;;;;;;;;;;;;;;6275703;22;20023;-82
2022/04/02 11:44:02;;;;;;;2.97;1.45;;;;;;;;;;6275369;22;20326;-82
2022/04/02 11:46:29;;;;;;;3.08;1.35;;;;;;;;;;6286503;22;20024;-82
2022/04/02 11:49:01;;;;;;;2.75;1.25;;;;;;;;;;6275620;22;20435;-82
2022/04/02 11:51:33;;;;;;;3.78;1.55;;;;;;;;;;6273688;22;20053;-82
2022/04/02 11:54:08;;;;;;;3.35;1.30;;;;;;;;;;6274661;22;20427;-81
2022/04/02 11:56:39;;;;;;;4.43;1.60;;;;;;;;;;6271927;22;20047;-81
2022/04/02 11:59:08;;;;;;;2.78;1.63;;;;;;;;;;6273341;22;20142;-82
2022/04/02 12:01:40;;;;;;;3.35;1.30;;;;;;;;;;6273450;22;20485;-81
2022/04/02 12:04:09;;;;;;;3.40;1.23;;;;;;;;;;6271763;22;20039;-81
2022/04/02 12:06:37;;;;;;;3.05;1.38;;;;;;;;;;6272338;22;20134;-81
2022/04/02 12:09:14;;;;;;;4.55;2.97;;;;;;;;;;6272159;22;20355;-82
2022/04/02 12:11:43;;;;;;;6.55;2.17;;;;;;;;;;6271905;22;20023;-83
2022/04/02 12:14:36;;;;;;;4.95;2.30;;;;;;;;;;6274903;22;20023;-82
2022/04/02 12:17:13;;;;;;;4.38;2.10;;;;;;;;;;6274934;22;20024;-82
2022/04/02 12:19:45;;;;;;;4.35;2.03;;;;;;;;;;6277280;22;20019;-82
2022/04/02 12:22:27;;;;;;;3.05;1.90;;;;;;;;;;6285800;22;20114;-83
2022/04/02 12:25:00;;;;;;;3.38;1.52;;;;;;;;;;6273860;22;20027;-83
2022/04/02 12:27:29;;;;;;;3.92;2.00;;;;;;;;;;6274343;22;20058;-83
2022/04/02 12:29:59;;;;;;;4.80;1.70;;;;;;;;;;6275022;22;20073;-83
2022/04/02 12:32:43;;;;;;;9.07;3.10;;;;;;;;;;6275031;22;20101;-83
2022/04/02 12:35:25;;;;;;;5.68;2.25;;;;;;;;;;6273678;22;20089;-82
2022/04/02 12:37:55;;;;;;;5.80;2.25;;;;;;;;;;6283308;22;20019;-83
2022/04/02 12:40:28;;;;;;;4.75;1.88;;;;;;;;;;6272232;22;20027;-83
2022/04/02 12:43:01;;;;;;;5.22;2.00;;;;;;;;;;6269770;22;20481;-83
2022/04/02 12:45:31;;;;;;;4.53;1.95;;;;;;;;;;6280579;22;20019;-83
2022/04/02 12:48:03;;;;;;;9.95;3.17;;;;;;;;;;6272535;22;20043;-82
2022/04/02 12:50:34;;;;;;;3.10;1.55;;;;;;;;;;6270903;22;20098;-82
2022/04/02 12:53:04;;;;;;;2.92;1.40;;;;;;;;;;6271337;22;20034;-82
2022/04/02 12:55:33;;;;;;;7.28;2.67;;;;;;;;;;6269875;22;20069;-82
2022/04/02 12:58:10;;;;;;;4.90;2.20;;;;;;;;;;6268643;22;20015;-82
2022/04/02 13:00:43;;;;;;;14.75;4.15;;;;;;;;;;6270067;22;20095;-81
2022/04/02 13:03:32;;;;;;;9.60;3.65;;;;;;;;;;6271338;22;20020;-82
2022/04/02 13:06:01;;;;;;;6.68;2.70;;;;;;;;;;6272403;22;20046;-82
2022/04/02 13:08:29;;;;;;;8.63;3.45;;;;;;;;;;6281899;22;20019;-82
2022/04/02 13:10:59;;;;;;;3.78;1.77;;;;;;;;;;6271061;22;20058;-82
2022/04/02 13:13:42;;;;;;;4.93;1.65;;;;;;;;;;6270418;22;20024;-82
2022/04/02 13:16:14;;;;;;;3.55;1.73;;;;;;;;;;6281109;22;20390;-82
2022/04/02 13:21:42;;;;;;;7.85;2.63;;;;;;;;;;6272725;22;20090;-82
2022/04/02 13:24:29;;;;;;;3.45;1.33;;;;;;;;;;6272755;22;20069;-82
2022/04/02 13:27:24;;;;;;;3.08;1.40;;;;;;;;;;6272347;22;20030;-83
2022/04/02 13:30:13;;;;;;;2.25;1.20;;;;;;;;;;6271815;22;20016;-83
2022/04/02 13:32:58;;;;;;;4.45;2.17;;;;;;;;;;6271800;22;20077;-83
2022/04/02 13:35:41;;;;;;;3.15;1.40;;;;;;;;;;6272329;22;20066;-83
2022/04/02 13:38:28;;;;;;;2.58;1.15;;;;;;;;;;6270950;22;20019;-82
2022/04/02 13:40:56;;;;;;;;;;;;;;;;;;6271785;22;20027;-83
2022/04/02 13:43:34;;;;;;;3.25;1.40;;;;;;;;;;6269354;22;20233;-82
2022/04/02 13:46:04;;;;;;;5.45;1.23;;;;;;;;;;6270281;22;20019;-82
2022/04/02 13:48:52;;;;;;;2.85;1.48;;;;;;;;;;6271234;22;20024;-82
2022/04/02 13:51:34;;;;;;;2.70;1.40;;;;;;;;;;6268270;22;20024;-82
2022/04/02 13:54:05;;;;;;;2.70;1.10;;;;;;;;;;6270861;22;20489;-81
2022/04/02 13:56:41;;;;;;;2.60;1.30;;;;;;;;;;6270095;22;20024;-82
2022/04/02 13:59:11;;;;;;;1.73;1.00;;;;;;;;;;6270228;22;20016;-82
2022/04/02 14:01:57;;;;;;;3.75;1.90;;;;;;;;;;6271396;22;20098;-81
2022/04/02 14:04:51;;;;;;;;;;;;;;;;;;6282130;22;20023;-82
2022/04/02 14:07:28;;;;;;;2.97;1.52;;;;;;;;;;6266383;22;19925;-82
2022/04/02 14:10:01;;;;;;;3.53;1.35;;;;;;;;;;6280393;22;20459;-82
2022/04/02 14:12:43;;;;;;;2.58;1.10;;;;;;;;;;6271157;22;20019;-81
2022/04/02 14:15:13;;;;;;;2.63;1.45;;;;;;;;;;6270459;22;20427;-81
2022/04/02 14:17:43;;;;;;;3.47;1.30;;;;;;;;;;6281340;22;20015;-82
2022/04/02 14:20:13;;;;;;;3.08;1.30;;;;;;;;;;6270915;22;20011;-82
2022/04/02 14:23:03;;;;;;;3.40;1.50;;;;;;;;;;6271046;22;20023;-82
2022/04/02 14:25:58;;;;;;;7.95;3.97;;;;;;;;;;6281136;22;20012;-82
2022/04/02 14:28:50;;;;;;;4.72;2.13;;;;;;;;;;6268567;22;20050;-82
2022/04/02 14:31:51;;;;;;;3.05;1.30;;;;;;;;;;6256075;22;20023;-82
2022/04/02 14:34:49;;;;;;;3.60;1.30;;;;;;;;;;6271664;22;20450;-82
2022/04/02 14:37:23;;;;;;;3.10;1.48;;;;;;;;;;6281787;22;20043;-83
2022/04/02 14:40:08;;;;;;;11.43;1.90;;;;;;;;;;6271309;22;20024;-82
2022/04/02 14:42:55;;;;;;;4.18;1.38;;;;;;;;;;6271074;22;20023;-83
2022/04/02 14:46:00;;;;;;;2.42;1.20;;;;;;;;;;6270896;22;20026;-83
2022/04/02 14:48:51;;;;;;;2.72;1.40;;;;;;;;;;6271645;22;20023;-82
2022/04/02 14:51:31;;;;;;;2.80;1.23;;;;;;;;;;6272462;22;20360;-82
2022/04/02 14:54:14;;;;;;;2.22;1.10;;;;;;;;;;6271232;22;20111;-82
2022/04/02 14:56:56;;;;;;;2.60;1.05;;;;;;;;;;6272784;22;20708;-82
2022/04/02 14:59:48;;;;;;;1.83;0.90;;;;;;;;;;6271088;22;20480;-82
2022/04/02 15:02:59;;;;;;;2.67;1.38;;;;;;;;;;6271794;22;20031;-82
2022/04/02 15:05:44;;;;;;;5.15;1.25;;;;;;;;;;6271096;22;20028;-83
2022/04/02 15:08:20;;;;;;;4.28;1.55;;;;;;;;;;6273842;22;20050;-83
2022/04/02 15:10:48;;;;;;;2.20;1.10;;;;;;;;;;6283481;22;20099;-85
2022/04/02 15:13:26;;;;;;;3.47;1.30;;;;;;;;;;6281204;22;20023;-85
2022/04/02 15:15:55;;;;;;;1.90;1.00;;;;;;;;;;6280779;22;20090;-85
2022/04/02 15:18:25;;;;;;;2.50;1.05;;;;;;;;;;6280396;22;20034;-84
2022/04/02 15:21:14;;;;;;;2.35;1.40;;;;;;;;;;6279986;22;20090;-84
2022/04/02 15:24:01;;;;;;;2.38;1.15;;;;;;;;;;6271498;22;20621;-84
2022/04/02 15:26:29;;;;;;;2.80;1.13;;;;;;;;;;6270711;22;20050;-83
2022/04/02 15:29:03;;;;;;;3.42;1.35;;;;;;;;;;6275479;22;20103;-84
2022/04/02 15:31:52;;;;;;;2.05;0.98;;;;;;;;;;6280547;22;20020;-82
2022/04/02 15:34:19;;;;;;;3.72;1.00;;;;;;;;;;6269585;22;20123;-84
2022/04/02 15:37:07;;;;;;;2.97;1.27;;;;;;;;;;6271262;22;20439;-83
2022/04/02 15:39:38;;;;;;;1.60;0.90;;;;;;;;;;6268275;22;20438;-83
2022/04/02 15:42:24;;;;;;;5.30;1.40;;;;;;;;;;6265945;22;20065;-83
2022/04/02 15:44:59;;;;;;;4.20;1.08;;;;;;;;;;6267298;22;20049;-83
2022/04/02 15:47:37;;;;;;;2.58;1.10;;;;;;;;;;6280572;22;20027;-83
2022/04/02 15:50:19;;;;;;;2.40;0.85;;;;;;;;;;6269572;22;20086;-83
2022/04/02 15:53:09;;;;;;;3.55;1.20;;;;;;;;;;6280664;22;20028;-83
2022/04/02 15:55:50;;;;;;;2.38;1.10;;;;;;;;;;6280018;22;20019;-83
2022/04/02 15:58:26;;;;;;;3.15;1.27;;;;;;;;;;6268992;22;20304;-83
2022/04/02 16:00:56;;;;;;;3.20;1.38;;;;;;;;;;6262220;22;20458;-83
2022/04/02 16:03:42;;;;;;;2.63;1.30;;;;;;;;;;6269291;22;20020;-83
2022/04/02 16:06:18;;;;;;;;;;;;;;;;;;6270785;22;20047;-83
2022/04/02 16:08:54;;;;;;;4.32;1.65;;;;;;;;;;6269539;22;19930;-83
2022/04/02 16:11:35;;;;;;;3.42;1.50;;;;;;;;;;6269353;22;20308;-83
2022/04/02 16:14:07;;;;;;;3.28;1.40;;;;;;;;;;6270993;22;20024;-83
2022/04/02 16:16:50;;;;;;;42.75;11.95;;;;;;;;;;6284934;22;20099;-84
2022/04/02 16:19:44;;;;;;;60.25;19.73;;;;;;;;;;6277795;22;20027;-83
2022/04/02 16:22:23;;;;;;;23.08;8.38;;;;;;;;;;6280656;22;20066;-82
2022/04/02 16:24:56;;;;;;;15.55;4.80;;;;;;;;;;6270431;22;20300;-82
2022/04/02 16:27:27;;;;;;;49.90;14.05;;;;;;;;;;6278989;22;20479;-82
2022/04/02 16:29:58;;;;;;;5.25;2.78;;;;;;;;;;6269519;22;20015;-82
2022/04/02 16:32:28;;;;;;;8.45;3.30;;;;;;;;;;6279414;22;20016;-82
2022/04/02 16:34:55;;;;;;;7.18;3.65;;;;;;;;;;6281178;22;20020;-82
2022/04/02 16:37:31;;;;;;;4.57;2.40;;;;;;;;;;6268247;22;20100;-84
2022/04/02 16:39:59;;;;;;;6.35;1.77;;;;;;;;;;6269800;22;20510;-84
2022/04/02 16:42:28;;;;;;;3.17;1.50;;;;;;;;;;6267403;22;20043;-84
2022/04/02 16:44:57;;;;;;;7.95;2.10;;;;;;;;;;6270544;22;20391;-82
2022/04/02 16:47:27;;;;;;;3.28;1.60;;;;;;;;;;6269405;22;20019;-82
2022/04/02 16:49:57;;;;;;;3.97;1.20;;;;;;;;;;6270906;22;20091;-82
2022/04/02 16:52:28;;;;;;;3.58;1.17;;;;;;;;;;6281882;22;20023;-82
2022/04/02 16:55:05;;;;;;;3.20;1.67;;;;;;;;;;6271636;22;20028;-82
2022/04/02 16:57:37;;;;;;;2.78;1.40;;;;;;;;;;6267304;22;20105;-83
2022/04/02 17:00:09;;;;;;;2.10;1.10;;;;;;;;;;6270519;22;20034;-83
2022/04/02 17:02:38;;;;;;;4.28;1.20;;;;;;;;;;6276660;22;20099;-83
2022/04/02 17:05:08;;;;;;;2.78;1.30;;;;;;;;;;6272955;22;20020;-82
2022/04/02 17:07:48;;;;;;;5.53;1.75;;;;;;;;;;6284510;22;20383;-83
2022/04/02 17:10:28;;;;;;;2.70;1.20;;;;;;;;;;6255690;22;20028;-84
2022/04/02 17:12:59;;;;;;;3.17;1.70;;;;;;;;;;6267737;22;20111;-85
2022/04/02 17:15:29;;;;;;;3.67;1.42;;;;;;;;;;6267348;22;20382;-84
2022/04/02 17:18:06;;;;;;;3.92;1.63;;;;;;;;;;6279262;22;20054;-85
2022/04/02 17:20:34;;;;;;;1.88;0.90;;;;;;;;;;6280421;22;20397;-85
2022/04/02 17:23:01;;;;;;;3.58;1.52;;;;;;;;;;6283283;22;20444;-84
2022/04/02 17:25:33;;;;;;;2.70;1.20;;;;;;;;;;6284360;22;20336;-84
2022/04/02 17:28:06;;;;;;;6.50;2.58;;;;;;;;;;6284093;22;20087;-84
2022/04/02 17:30:35;;;;;;;7.75;3.05;;;;;;;;;;6283155;22;20020;-83
2022/04/02 17:33:03;;;;;;;5.10;2.22;;;;;;;;;;6272042;22;20685;-83
2022/04/02 17:35:33;;;;;;;10.63;4.43;;;;;;;;;;6279951;22;20072;-85
2022/04/02 17:38:15;;;;;;;13.93;3.67;;;;;;;;;;6277920;22;20043;-85
2022/04/02 17:40:44;;;;;;;11.77;4.43;;;;;;;;;;6279354;22;20019;-84
2022/04/02 17:43:13;;;;;;;19.77;6.57;;;;;;;;;;6280724;22;20019;-84
2022/04/02 17:45:49;;;;;;;7.30;2.97;;;;;;;;;;6281333;22;20125;-84
2022/04/02 17:48:23;;;;;;;36.10;10.07;;;;;;;;;;6270915;22;20047;-83
2022/04/02 17:50:53;;;;;;;7.47;2.90;;;;;;;;;;6281374;22;20094;-83
2022/04/02 17:53:35;;;;;;;5.40;2.40;;;;;;;;;;6269484;22;20118;-83
2022/04/02 17:56:08;;;;;;;4.68;1.48;;;;;;;;;;6269269;22;20456;-83
2022/04/02 17:58:46;;;;;;;7.75;3.95;;;;;;;;;;6267336;22;20098;-83
2022/04/02 18:01:27;;;;;;;17.08;6.35;;;;;;;;;;6268703;22;20082;-83
2022/04/02 18:03:55;;;;;;;11.63;4.72;;;;;;;;;;6265579;22;20023;-83
2022/04/02 18:06:29;;;;;;;20.17;7.78;;;;;;;;;;6269138;22;20102;-83
2022/04/02 18:08:59;;;;;;;44.17;14.77;;;;;;;;;;6263914;22;20511;-83
2022/04/02 18:11:28;;;;;;;37.92;13.57;;;;;;;;;;6280618;22;20022;-84
2022/04/02 18:13:57;;;;;;;31.85;11.98;;;;;;;;;;6278255;22;20047;-84
2022/04/02 18:16:26;;;;;;;25.30;10.50;;;;;;;;;;6269906;22;20674;-83
2022/04/02 18:18:54;;;;;;;24.83;8.65;;;;;;;;;;6268824;22;20094;-84
2022/04/02 18:21:25;;;;;;;26.33;10.35;;;;;;;;;;6268974;22;20026;-84
2022/04/02 18:23:53;;;;;;;13.13;5.82;;;;;;;;;;6278439;22;20019;-85
2022/04/02 18:26:21;;;;;;;9.50;4.75;;;;;;;;;;6278479;22;20020;-85
2022/04/02 18:28:49;;;;;;;17.13;6.43;;;;;;;;;;6277791;22;20551;-84
2022/04/02 18:31:17;;;;;;;19.23;6.88;;;;;;;;;;6262344;22;20015;-85
2022/04/02 18:33:45;;;;;;;11.88;4.93;;;;;;;;;;6278536;22;20020;-85
2022/04/02 18:36:13;;;;;;;10.35;4.38;;;;;;;;;;6277661;22;20032;-86
2022/04/02 18:38:41;;;;;;;11.45;4.85;;;;;;;;;;6278302;22;20031;-85
2022/04/02 18:41:09;;;;;;;10.77;4.57;;;;;;;;;;6280837;22;20020;-85
2022/04/02 18:43:37;;;;;;;14.00;4.53;;;;;;;;;;6279028;22;20031;-85
2022/04/02 18:46:05;;;;;;;7.53;3.90;;;;;;;;;;6281329;22;20027;-84
2022/04/02 18:48:33;;;;;;;8.40;4.03;;;;;;;;;;6280378;22;20115;-84